createdAt,value
2022-10-07T00:01:07.754Z,2.07
2022-10-07T00:03:35.974Z,2.30
2022-10-07T00:06:20.773Z,2.37
2022-10-07T00:08:52.336Z,2.10
2022-10-07T00:11:26.780Z,2.33
2022-10-07T00:14:01.401Z,2.60
2022-10-07T00:16:33.817Z,2.50
2022-10-07T00:19:05.010Z,2.57
2022-10-07T00:21:34.935Z,2.30
2022-10-07T00:24:03.191Z,3.10
2022-10-07T00:26:33.262Z,3.33
2022-10-07T00:29:01.631Z,3.87
2022-10-07T00:31:32.889Z,3.63
2022-10-07T00:34:02.712Z,4.50
2022-10-07T00:36:36.801Z,4.90
2022-10-07T00:39:12.054Z,4.07
2022-10-07T00:41:50.191Z,4.60
2022-10-07T00:44:33.990Z,4.33
2022-10-07T00:47:29.409Z,3.80
2022-10-07T00:50:10.575Z,3.00
2022-10-07T00:52:52.426Z,2.80
2022-10-07T00:55:25.041Z,2.60
2022-10-07T00:57:57.327Z,3.33
2022-10-07T01:00:28.114Z,3.07
2022-10-07T01:02:55.700Z,3.03
2022-10-07T01:05:23.422Z,2.70
2022-10-07T01:07:53.991Z,3.20
2022-10-07T01:10:24.480Z,2.83
2022-10-07T01:13:19.736Z,2.80
2022-10-07T01:16:23.367Z,2.80
2022-10-07T01:19:36.393Z,2.87
2022-10-07T01:22:32.777Z,2.90
2022-10-07T01:25:43.787Z,2.40
2022-10-07T01:28:23.799Z,2.27
2022-10-07T01:30:58.287Z,3.33
2022-10-07T01:33:31.945Z,2.60
2022-10-07T01:36:15.607Z,2.03
2022-10-07T01:38:53.485Z,1.83
2022-10-07T01:41:23.268Z,1.87
2022-10-07T01:43:55.005Z,1.80
2022-10-07T01:46:26.532Z,1.90
2022-10-07T01:48:57.535Z,1.90
2022-10-07T01:51:29.838Z,1.80
2022-10-07T01:54:38.913Z,1.73
2022-10-07T01:57:26.168Z,1.77
2022-10-07T02:00:10.229Z,1.93
2022-10-07T02:03:27.908Z,1.70
2022-10-07T02:06:29.070Z,1.70
2022-10-07T02:09:00.880Z,1.53
2022-10-07T02:11:32.839Z,1.47
2022-10-07T02:14:31.582Z,2.03
2022-10-07T02:17:10.750Z,1.70
2022-10-07T02:19:48.321Z,1.60
2022-10-07T02:22:18.489Z,1.67
2022-10-07T02:24:49.427Z,1.60
2022-10-07T02:27:23.413Z,1.77
2022-10-07T02:30:08.900Z,1.50
2022-10-07T02:32:41.328Z,1.40
2022-10-07T02:35:23.340Z,1.90
2022-10-07T02:37:56.300Z,1.53
2022-10-07T02:40:33.137Z,1.93
2022-10-07T02:43:30.413Z,1.93
2022-10-07T02:46:12.350Z,2.13
2022-10-07T02:49:10.080Z,1.90
2022-10-07T02:51:48.067Z,1.70
2022-10-07T02:54:24.020Z,1.63
2022-10-07T02:56:52.508Z,1.90
2022-10-07T02:59:22.008Z,3.60
2022-10-07T03:01:54.354Z,2.87
2022-10-07T03:04:23.879Z,3.27
2022-10-07T03:06:52.330Z,1.97
2022-10-07T03:09:20.012Z,2.53
2022-10-07T03:11:47.663Z,3.00
2022-10-07T03:14:15.392Z,3.30
2022-10-07T03:16:42.901Z,3.20
2022-10-07T03:19:10.967Z,3.20
2022-10-07T03:21:51.894Z,2.80
2022-10-07T03:24:22.784Z,2.60
2022-10-07T03:26:51.460Z,2.70
2022-10-07T03:29:19.882Z,3.00
2022-10-07T03:31:47.625Z,2.90
2022-10-07T03:34:15.303Z,4.30
2022-10-07T03:36:46.592Z,3.70
2022-10-07T03:39:14.299Z,3.63
2022-10-07T03:41:42.481Z,4.60
2022-10-07T03:44:11.270Z,4.33
2022-10-07T03:46:38.860Z,3.70
2022-10-07T03:49:06.685Z,4.70
2022-10-07T03:51:36.237Z,4.23
2022-10-07T03:54:06.742Z,4.00
2022-10-07T03:56:35.614Z,4.50
2022-10-07T03:59:03.501Z,4.80
2022-10-07T04:01:32.555Z,4.03
2022-10-07T04:04:01.311Z,4.47
2022-10-07T04:06:32.733Z,3.50
2022-10-07T04:09:03.876Z,3.70
2022-10-07T04:11:31.467Z,3.30
2022-10-07T04:14:00.809Z,3.73
2022-10-07T04:16:29.669Z,2.83
2022-10-07T04:18:57.970Z,3.90
2022-10-07T04:21:28.347Z,3.20
2022-10-07T04:23:55.926Z,3.03
2022-10-07T04:26:23.703Z,2.80
2022-10-07T04:28:51.964Z,3.30
2022-10-07T04:31:22.179Z,3.07
2022-10-07T04:33:56.435Z,7.63
2022-10-07T04:36:28.627Z,3.40
2022-10-07T04:39:05.762Z,3.33
2022-10-07T04:41:36.929Z,2.80
2022-10-07T04:44:09.283Z,2.67
2022-10-07T04:46:43.428Z,5.00
2022-10-07T04:49:14.241Z,7.33
2022-10-07T04:51:41.778Z,7.20
2022-10-07T04:54:10.293Z,8.33
2022-10-07T04:56:51.824Z,8.23
2022-10-07T04:59:24.133Z,9.20
2022-10-07T05:01:54.618Z,8.40
2022-10-07T05:04:25.457Z,5.97
2022-10-07T05:06:55.435Z,4.67
2022-10-07T05:09:24.518Z,4.17
2022-10-07T05:11:57.710Z,6.10
2022-10-07T05:14:25.480Z,10.27
2022-10-07T05:16:54.075Z,8.97
2022-10-07T05:19:25.986Z,4.80
2022-10-07T05:21:54.674Z,4.00
2022-10-07T05:24:22.358Z,4.40
2022-10-07T05:26:51.572Z,6.20
2022-10-07T05:29:19.686Z,12.63
2022-10-07T05:31:50.847Z,7.40
2022-10-07T05:34:22.233Z,4.60
2022-10-07T05:36:50.075Z,3.80
2022-10-07T05:39:17.682Z,3.40
2022-10-07T05:41:56.095Z,3.17
2022-10-07T05:44:31.430Z,3.27
2022-10-07T05:47:02.464Z,3.00
2022-10-07T05:49:30.904Z,3.60
2022-10-07T05:51:59.212Z,3.00
2022-10-07T05:54:26.775Z,4.03
2022-10-07T05:56:55.799Z,4.20
2022-10-07T05:59:24.619Z,3.73
2022-10-07T06:01:53.168Z,3.27
2022-10-07T06:04:21.988Z,2.93
2022-10-07T06:06:52.377Z,3.40
2022-10-07T06:09:39.119Z,3.20
2022-10-07T06:12:31.718Z,2.87
2022-10-07T06:15:01.477Z,2.13
2022-10-07T06:17:29.915Z,2.60
2022-10-07T06:20:00.381Z,2.60
2022-10-07T06:22:28.170Z,2.50
2022-10-07T06:24:58.882Z,2.93
2022-10-07T06:27:27.092Z,3.23
2022-10-07T06:29:55.728Z,3.30
2022-10-07T06:32:23.327Z,3.90
2022-10-07T06:34:51.721Z,3.10
2022-10-07T06:37:20.674Z,3.43
2022-10-07T06:39:48.572Z,2.97
2022-10-07T06:42:16.019Z,2.97
2022-10-07T06:45:05.273Z,2.20
2022-10-07T06:47:32.955Z,2.40
2022-10-07T06:50:00.486Z,2.30
2022-10-07T06:52:29.097Z,2.23
2022-10-07T06:54:59.096Z,2.17
2022-10-07T06:57:44.728Z,2.70
2022-10-07T07:00:14.312Z,2.20
2022-10-07T07:02:45.016Z,2.50
2022-10-07T07:05:16.951Z,2.07
2022-10-07T07:07:47.156Z,2.80
2022-10-07T07:10:15.189Z,3.23
2022-10-07T07:12:47.952Z,2.17
2022-10-07T07:15:15.959Z,3.27
2022-10-07T07:17:44.216Z,3.07
2022-10-07T07:20:15.508Z,3.03
2022-10-07T07:22:43.496Z,2.53
2022-10-07T07:25:11.947Z,2.50
2022-10-07T07:27:42.013Z,2.37
2022-10-07T07:30:13.393Z,2.23
2022-10-07T07:32:41.708Z,2.40
2022-10-07T07:35:09.676Z,2.60
2022-10-07T07:37:38.477Z,2.20
2022-10-07T07:40:07.253Z,2.10
2022-10-07T07:42:35.325Z,2.50
2022-10-07T07:45:04.322Z,2.53
2022-10-07T07:47:35.678Z,2.23
2022-10-07T07:50:05.157Z,2.53
2022-10-07T07:52:34.951Z,2.60
2022-10-07T07:55:04.923Z,2.27
2022-10-07T07:57:33.899Z,2.43
2022-10-07T08:00:07.574Z,2.60
2022-10-07T08:03:00.174Z,2.13
2022-10-07T08:05:28.590Z,2.13
2022-10-07T08:07:58.815Z,4.30
2022-10-07T08:10:27.441Z,2.63
2022-10-07T08:12:55.998Z,2.13
2022-10-07T08:15:25.145Z,2.10
2022-10-07T08:17:53.816Z,2.03
2022-10-07T08:20:21.321Z,2.00
2022-10-07T08:22:52.668Z,2.40
2022-10-07T08:25:22.570Z,2.20
2022-10-07T08:27:50.911Z,2.53
2022-10-07T08:30:18.596Z,2.47
2022-10-07T08:32:46.702Z,1.50
2022-10-07T08:35:14.274Z,2.00
2022-10-07T08:37:41.694Z,2.00
2022-10-07T08:40:16.598Z,1.73
2022-10-07T08:42:45.931Z,1.37
2022-10-07T08:45:32.092Z,1.80
2022-10-07T08:48:05.425Z,1.50
2022-10-07T08:51:11.612Z,1.73
2022-10-07T08:53:39.199Z,1.40
2022-10-07T08:56:20.646Z,1.60
2022-10-07T08:59:10.113Z,1.60
2022-10-07T09:01:47.060Z,1.47
2022-10-07T09:04:44.200Z,1.57
2022-10-07T09:07:18.916Z,1.30
2022-10-07T09:10:09.788Z,1.70
2022-10-07T09:13:00.459Z,1.50
2022-10-07T09:15:46.396Z,1.70
2022-10-07T09:18:31.933Z,2.03
2022-10-07T09:21:00.629Z,1.30
2022-10-07T09:23:33.962Z,1.50
2022-10-07T09:26:01.578Z,1.30
2022-10-07T09:28:32.980Z,1.80
2022-10-07T09:31:03.173Z,1.27
2022-10-07T09:33:31.319Z,1.50
2022-10-07T09:36:11.388Z,1.60
2022-10-07T09:38:45.059Z,1.23
2022-10-07T09:41:36.396Z,1.27
2022-10-07T09:44:16.403Z,1.88
2022-10-07T09:46:59.526Z,1.20
2022-10-07T09:49:29.501Z,1.03
2022-10-07T09:52:23.424Z,1.27
2022-10-07T09:54:54.584Z,0.95
2022-10-07T09:57:34.326Z,1.20
2022-10-07T10:00:13.852Z,1.17
2022-10-07T10:03:05.808Z,1.08
2022-10-07T10:06:15.568Z,0.90
2022-10-07T10:08:44.776Z,1.20
2022-10-07T10:11:20.798Z,0.98
2022-10-07T10:13:51.041Z,1.35
2022-10-07T10:16:40.603Z,1.33
2022-10-07T10:19:27.963Z,1.40
2022-10-07T10:21:58.504Z,1.20
2022-10-07T10:24:52.885Z,1.20
2022-10-07T10:27:33.165Z,1.42
2022-10-07T10:30:07.038Z,1.20
2022-10-07T10:32:49.582Z,1.10
2022-10-07T10:35:29.069Z,1.00
2022-10-07T10:38:53.223Z,1.30
2022-10-07T10:41:32.505Z,1.25
2022-10-07T10:44:24.284Z,1.35
2022-10-07T10:46:52.196Z,1.17
2022-10-07T10:49:53.164Z,1.42
2022-10-07T10:52:56.135Z,1.25
2022-10-07T10:55:36.770Z,1.10
2022-10-07T10:58:27.931Z,1.20
2022-10-07T11:01:34.967Z,1.23
2022-10-07T11:04:47.886Z,1.50
2022-10-07T11:07:44.218Z,1.20
2022-10-07T11:10:29.795Z,1.30
2022-10-07T11:13:19.140Z,1.17
2022-10-07T11:15:53.794Z,1.20
2022-10-07T11:18:43.065Z,1.23
2022-10-07T11:21:22.250Z,1.27
2022-10-07T11:24:02.284Z,1.60
2022-10-07T11:27:17.941Z,1.13
2022-10-07T11:30:06.674Z,1.33
2022-10-07T11:33:15.390Z,1.10
2022-10-07T11:35:54.324Z,1.40
2022-10-07T11:38:29.678Z,1.30
2022-10-07T11:41:04.887Z,1.50
2022-10-07T11:43:46.327Z,1.30
2022-10-07T11:46:34.457Z,1.08
2022-10-07T11:49:07.931Z,1.30
2022-10-07T11:51:50.572Z,1.60
2022-10-07T11:54:45.475Z,1.50
2022-10-07T11:57:24.907Z,1.70
2022-10-07T12:00:09.541Z,1.45
2022-10-07T12:02:46.541Z,1.40
2022-10-07T12:05:55.241Z,1.50
2022-10-07T12:08:38.809Z,1.60
2022-10-07T12:11:15.631Z,1.25
2022-10-07T12:13:52.852Z,1.42
2022-10-07T12:16:32.011Z,1.30
2022-10-07T12:19:11.653Z,1.50
2022-10-07T12:21:59.777Z,1.45
2022-10-07T12:24:32.250Z,1.70
2022-10-07T12:27:18.629Z,1.48
2022-10-07T12:29:49.041Z,1.60
2022-10-07T12:32:51.724Z,1.38
2022-10-07T12:35:45.139Z,1.65
2022-10-07T12:38:23.678Z,1.60
2022-10-07T12:41:15.074Z,1.33
2022-10-07T12:44:12.163Z,1.92
2022-10-07T12:46:51.492Z,1.90
2022-10-07T12:49:55.812Z,1.60
2022-10-07T12:52:23.313Z,1.55
2022-10-07T12:55:29.640Z,1.52
2022-10-07T12:58:18.413Z,1.52
2022-10-07T13:01:41.888Z,1.48
2022-10-07T13:04:37.451Z,1.58
2022-10-07T13:07:28.187Z,1.48
2022-10-07T13:10:20.147Z,2.30
2022-10-07T13:12:55.841Z,1.52
2022-10-07T13:15:35.369Z,1.60
2022-10-07T13:18:26.667Z,1.40
2022-10-07T13:21:26.327Z,1.52
2022-10-07T13:23:56.525Z,1.83
2022-10-07T13:26:26.848Z,1.30
2022-10-07T13:28:57.604Z,1.40
2022-10-07T13:31:33.429Z,1.30
2022-10-07T13:34:15.812Z,1.52
2022-10-07T13:36:44.047Z,1.60
2022-10-07T13:39:21.743Z,1.75
2022-10-07T13:41:55.827Z,1.92
2022-10-07T13:44:27.584Z,1.30
2022-10-07T13:47:05.124Z,1.40
2022-10-07T13:49:43.796Z,1.30
2022-10-07T13:52:35.230Z,1.40
2022-10-07T13:55:02.928Z,1.17
2022-10-07T13:57:31.941Z,0.93
2022-10-07T14:00:00.496Z,1.10
2022-10-07T14:02:28.447Z,1.30
2022-10-07T14:05:01.598Z,1.00
2022-10-07T14:07:32.694Z,1.10
2022-10-07T14:10:00.664Z,1.40
2022-10-07T14:12:43.150Z,1.10
2022-10-07T14:15:34.304Z,1.10
2022-10-07T14:18:12.383Z,2.33
2022-10-07T14:20:52.344Z,1.08
2022-10-07T14:23:34.285Z,1.00
2022-10-07T14:26:15.518Z,1.27
2022-10-07T14:28:44.435Z,1.05
2022-10-07T14:31:41.058Z,1.23
2022-10-07T14:34:33.084Z,1.80
2022-10-07T14:37:31.057Z,1.30
2022-10-07T14:40:00.921Z,1.23
2022-10-07T14:42:35.936Z,1.40
2022-10-07T14:45:08.062Z,1.33
2022-10-07T14:47:39.058Z,1.40
2022-10-07T14:50:07.169Z,1.20
2022-10-07T14:52:49.868Z,1.52
2022-10-07T14:55:23.968Z,1.20
2022-10-07T14:57:52.618Z,1.25
2022-10-07T15:00:29.446Z,1.50
2022-10-07T15:02:58.080Z,1.35
2022-10-07T15:05:27.577Z,1.20
2022-10-07T15:07:55.067Z,1.30
2022-10-07T15:10:26.833Z,1.63
2022-10-07T15:12:59.541Z,1.60
2022-10-07T15:15:27.046Z,1.35
2022-10-07T15:17:54.569Z,1.30
2022-10-07T15:20:22.234Z,1.30
2022-10-07T15:22:51.888Z,1.38
2022-10-07T15:25:22.133Z,1.60
2022-10-07T15:27:49.641Z,1.30
2022-10-07T15:30:17.253Z,1.33
2022-10-07T15:32:45.068Z,1.40
2022-10-07T15:35:12.995Z,1.30
2022-10-07T15:37:45.775Z,1.35
2022-10-07T15:40:14.764Z,1.23
2022-10-07T15:42:44.805Z,1.17
2022-10-07T15:45:16.721Z,1.48
2022-10-07T15:47:44.327Z,1.25
2022-10-07T15:50:11.894Z,1.60
2022-10-07T15:52:39.460Z,1.40
2022-10-07T15:55:08.034Z,1.63
2022-10-07T15:57:36.220Z,1.60
2022-10-07T16:00:05.723Z,1.40
2022-10-07T16:02:39.400Z,1.70
2022-10-07T16:05:07.744Z,1.50
2022-10-07T16:07:35.324Z,1.75
2022-10-07T16:10:03.616Z,1.50
2022-10-07T16:12:31.129Z,2.30
2022-10-07T16:14:58.887Z,2.22
2022-10-07T16:17:27.760Z,2.30
2022-10-07T16:19:55.356Z,2.08
2022-10-07T16:22:31.611Z,2.10
2022-10-07T16:25:01.889Z,2.20
2022-10-07T16:27:50.802Z,1.90
2022-10-07T16:30:37.715Z,2.20
2022-10-07T16:33:05.340Z,2.27
2022-10-07T16:35:32.862Z,2.78
2022-10-07T16:38:00.973Z,2.30
2022-10-07T16:40:28.666Z,2.42
2022-10-07T16:42:59.618Z,2.10
2022-10-07T16:45:27.841Z,2.00
2022-10-07T16:48:00.253Z,2.70
2022-10-07T16:50:28.931Z,2.03
2022-10-07T16:53:00.762Z,2.10
2022-10-07T16:55:29.344Z,2.10
2022-10-07T16:57:57.121Z,2.57
2022-10-07T17:00:24.910Z,2.30
2022-10-07T17:02:52.394Z,2.10
2022-10-07T17:05:19.944Z,2.20
2022-10-07T17:07:50.491Z,2.70
2022-10-07T17:10:23.363Z,3.07
2022-10-07T17:12:50.986Z,2.50
2022-10-07T17:15:18.562Z,2.60
2022-10-07T17:17:48.487Z,2.80
2022-10-07T17:20:16.928Z,2.77
2022-10-07T17:22:44.470Z,2.97
2022-10-07T17:25:14.436Z,2.80
2022-10-07T17:27:43.867Z,2.63
2022-10-07T17:30:16.733Z,2.37
2022-10-07T17:32:45.129Z,2.87
2022-10-07T17:35:14.708Z,2.80
2022-10-07T17:37:42.589Z,2.93
2022-10-07T17:40:10.831Z,2.67
2022-10-07T17:42:38.408Z,2.70
2022-10-07T17:45:06.914Z,3.10
2022-10-07T17:47:35.521Z,3.50
2022-10-07T17:50:04.446Z,3.20
2022-10-07T17:52:35.725Z,2.90
2022-10-07T17:55:06.198Z,3.40
2022-10-07T17:57:35.198Z,3.20
2022-10-07T18:00:06.634Z,3.20
2022-10-07T18:02:40.080Z,2.73
2022-10-07T18:05:09.635Z,3.07
2022-10-07T18:07:37.407Z,2.70
2022-10-07T18:10:05.223Z,2.80
2022-10-07T18:12:52.422Z,2.47
2022-10-07T18:15:21.737Z,3.00
2022-10-07T18:17:52.618Z,3.07
2022-10-07T18:20:22.870Z,3.73
2022-10-07T18:23:00.446Z,2.73
2022-10-07T18:25:31.516Z,2.57
2022-10-07T18:28:01.666Z,2.93
2022-10-07T18:30:30.003Z,3.07
2022-10-07T18:32:57.762Z,2.57
2022-10-07T18:35:28.311Z,2.90
2022-10-07T18:37:58.288Z,2.77
2022-10-07T18:40:27.049Z,2.80
2022-10-07T18:42:55.832Z,2.73
2022-10-07T18:45:26.086Z,2.90
2022-10-07T18:47:53.743Z,2.57
2022-10-07T18:50:23.999Z,2.90
2022-10-07T18:52:51.596Z,2.73
2022-10-07T18:55:19.706Z,3.20
2022-10-07T18:57:48.517Z,2.80
2022-10-07T19:00:16.374Z,2.80
2022-10-07T19:02:50.027Z,2.97
2022-10-07T19:05:20.520Z,2.70
2022-10-07T19:07:48.707Z,2.80
2022-10-07T19:10:16.511Z,2.57
2022-10-07T19:13:02.944Z,21.57
2022-10-07T19:15:30.547Z,4.50
2022-10-07T19:18:00.732Z,2.77
2022-10-07T19:20:31.074Z,2.60
2022-10-07T19:23:00.285Z,2.77
2022-10-07T19:25:47.415Z,2.90
2022-10-07T19:28:17.550Z,3.33
2022-10-07T19:30:45.334Z,42.67
2022-10-07T19:33:12.897Z,35.40
2022-10-07T19:35:42.704Z,29.93
2022-10-07T19:38:10.658Z,40.57
2022-10-07T19:40:45.400Z,25.23
2022-10-07T19:43:13.756Z,6.77
2022-10-07T19:45:43.127Z,4.60
2022-10-07T19:48:14.440Z,3.73
2022-10-07T19:50:42.277Z,3.40
2022-10-07T19:53:10.389Z,3.27
2022-10-07T19:55:38.416Z,3.97
2022-10-07T19:58:06.103Z,3.90
2022-10-07T20:00:35.911Z,3.07
2022-10-07T20:03:04.468Z,3.30
2022-10-07T20:05:32.839Z,3.10
2022-10-07T20:08:01.706Z,3.03
2022-10-07T20:10:30.027Z,6.33
2022-10-07T20:12:57.526Z,16.93
2022-10-07T20:15:25.214Z,22.80
2022-10-07T20:17:55.911Z,19.13
2022-10-07T20:20:24.432Z,15.47
2022-10-07T20:22:51.889Z,16.30
2022-10-07T20:25:19.411Z,7.77
2022-10-07T20:27:49.107Z,5.03
2022-10-07T20:30:18.356Z,4.10
2022-10-07T20:32:46.272Z,3.30
2022-10-07T20:35:14.131Z,3.20
2022-10-07T20:37:41.935Z,3.60
2022-10-07T20:40:29.122Z,3.87
2022-10-07T20:42:59.989Z,3.37
2022-10-07T20:45:27.555Z,3.00
2022-10-07T20:47:59.570Z,2.73
2022-10-07T20:50:28.811Z,2.83
2022-10-07T20:52:56.994Z,2.70
2022-10-07T20:55:24.613Z,2.93
2022-10-07T20:57:53.477Z,3.90
2022-10-07T21:00:21.299Z,4.50
2022-10-07T21:02:50.954Z,5.40
2022-10-07T21:05:18.737Z,5.70
2022-10-07T21:07:50.198Z,4.80
2022-10-07T21:10:24.446Z,3.63
2022-10-07T21:12:52.430Z,3.47
2022-10-07T21:15:20.431Z,3.60
2022-10-07T21:17:48.841Z,2.70
2022-10-07T21:20:16.461Z,2.77
2022-10-07T21:22:44.427Z,3.63
2022-10-07T21:25:12.844Z,3.40
2022-10-07T21:27:40.434Z,2.77
2022-10-07T21:30:10.501Z,3.10
2022-10-07T21:32:38.066Z,3.40
2022-10-07T21:35:08.729Z,2.50
2022-10-07T21:37:36.407Z,2.60
2022-10-07T21:40:04.159Z,3.10
2022-10-07T21:42:32.524Z,2.87
2022-10-07T21:45:00.171Z,2.53
2022-10-07T21:47:27.720Z,2.47
2022-10-07T21:49:56.917Z,2.50
2022-10-07T21:52:24.544Z,3.30
2022-10-07T21:54:52.594Z,3.73
2022-10-07T21:57:20.260Z,3.30
2022-10-07T21:59:47.769Z,3.33
2022-10-07T22:02:15.443Z,3.40
2022-10-07T22:04:43.288Z,2.83
2022-10-07T22:07:32.604Z,2.87
2022-10-07T22:10:00.469Z,3.50
2022-10-07T22:12:28.053Z,3.20
2022-10-07T22:14:55.575Z,2.83
2022-10-07T22:17:23.622Z,2.93
2022-10-07T22:19:51.278Z,3.03
2022-10-07T22:22:19.157Z,3.30
2022-10-07T22:24:46.729Z,2.70
2022-10-07T22:27:14.281Z,3.30
2022-10-07T22:29:42.635Z,2.63
2022-10-07T22:32:11.076Z,3.17
2022-10-07T22:34:57.165Z,3.30
2022-10-07T22:37:24.820Z,3.73
2022-10-07T22:39:52.939Z,2.67
2022-10-07T22:42:20.516Z,3.40
2022-10-07T22:44:48.080Z,3.30
2022-10-07T22:47:16.807Z,3.27
2022-10-07T22:49:44.434Z,3.23
2022-10-07T22:52:13.550Z,3.00
2022-10-07T22:54:42.621Z,3.07
2022-10-07T22:57:10.533Z,2.70
2022-10-07T22:59:38.899Z,2.93
2022-10-07T23:02:06.538Z,2.80
2022-10-07T23:04:34.616Z,2.70
2022-10-07T23:07:02.159Z,2.43
2022-10-07T23:09:29.716Z,3.00
2022-10-07T23:11:57.998Z,8.67
2022-10-07T23:14:25.613Z,10.03
2022-10-07T23:16:53.147Z,6.63
2022-10-07T23:19:20.712Z,4.03
2022-10-07T23:21:48.695Z,2.80
2022-10-07T23:24:16.305Z,2.90
2022-10-07T23:26:46.169Z,2.70
2022-10-07T23:29:14.122Z,2.67
2022-10-07T23:31:42.163Z,3.13
2022-10-07T23:34:11.654Z,3.00
2022-10-07T23:36:40.918Z,2.73
2022-10-07T23:39:08.481Z,3.13
2022-10-07T23:41:36.114Z,2.77
2022-10-07T23:44:04.107Z,2.80
2022-10-07T23:46:35.070Z,3.17
2022-10-07T23:49:03.794Z,2.70
2022-10-07T23:51:32.483Z,2.90
2022-10-07T23:54:02.835Z,2.57
2022-10-07T23:56:31.072Z,2.77
2022-10-07T23:58:58.759Z,2.90
